Terminal Aerodrome Forecast
Issued by NWS Glasgow, MT

Home | Current Version | Previous Version | Text Only | Print | Product List | Glossary On
Versions: 1 2 3 4 5 6 7 8 9 10 11 12 13 14 15 16
000
FTUS45 KGGW 281100
TAFGGW
TAF
KGGW 281138Z 2812/2912 27026G36KT 5SM -RA BKN008 OVC027
     FM281500 29033G47KT 3SM RA BKN006 OVC025
     FM290000 29023G32KT P6SM BKN040 BKN140
     FM290600 29011KT P6SM SCT210=

USA.gov is the U.S. government's official web portal to all federal, state and local government web resources and services.